sensor_id;sensor_type;location;lat;lon;timestamp;P1;P2;P0
55857;PMS7003;41779;52.360;31.026;2024-03-25T00:00:31;6.4;5.2;4.6
55857;PMS7003;41779;52.360;31.026;2024-03-25T00:05:31;6;5.3;4.8
55857;PMS7003;41779;52.360;31.026;2024-03-25T00:10:18;10.2;7.4;5.6
55857;PMS7003;41779;52.360;31.026;2024-03-25T00:15:31;8.2;7.6;5.6
55857;PMS7003;41779;52.360;31.026;2024-03-25T00:20:31;9;7.4;5.4
55857;PMS7003;41779;52.360;31.026;2024-03-25T00:25:17;10.2;8.4;7
55857;PMS7003;41779;52.360;31.026;2024-03-25T00:30:31;13.2;10.6;8.4
55857;PMS7003;41779;52.360;31.026;2024-03-25T00:35:31;11.4;10.6;9
55857;PMS7003;41779;52.360;31.026;2024-03-25T00:39:49;11.4;10.6;9
55857;PMS7003;41779;52.360;31.026;2024-03-25T00:44:41;13.2;10.8;8.6
55857;PMS7003;41779;52.360;31.026;2024-03-25T00:49:49;13.2;8.8;7.2
55857;PMS7003;41779;52.360;31.026;2024-03-25T00:54:59;12;9.4;7
55857;PMS7003;41779;52.360;31.026;2024-03-25T01:00:12;16.6;14.6;12.4
55857;PMS7003;41779;52.360;31.026;2024-03-25T01:04:57;16.6;14.6;12.4
55857;PMS7003;41779;52.360;31.026;2024-03-25T01:10:11;19.8;15.8;13
55857;PMS7003;41779;52.360;31.026;2024-03-25T01:15:17;12.2;9;6.8
55857;PMS7003;41779;52.360;31.026;2024-03-25T01:19:57;12.2;9;6.8
55857;PMS7003;41779;52.360;31.026;2024-03-25T01:24:53;7.6;5.8;4.8
55857;PMS7003;41779;52.360;31.026;2024-03-25T01:29:43;12;9.6;7.4
55857;PMS7003;41779;52.360;31.026;2024-03-25T01:35:21;10.6;8.2;6.4
55857;PMS7003;41779;52.360;31.026;2024-03-25T01:39:41;10.6;8.2;6.4
55857;PMS7003;41779;52.360;31.026;2024-03-25T01:45:21;18.8;11.6;8.6
55857;PMS7003;41779;52.360;31.026;2024-03-25T01:50:33;13.6;9;7.2
55857;PMS7003;41779;52.360;31.026;2024-03-25T01:55:32;10.2;7.6;5.8
55857;PMS7003;41779;52.360;31.026;2024-03-25T02:00:07;5.6;2.8;1.8
55857;PMS7003;41779;52.360;31.026;2024-03-25T02:05:19;6.8;4.4;3.2
55857;PMS7003;41779;52.360;31.026;2024-03-25T02:10:08;6;4.8;3.8
55857;PMS7003;41779;52.360;31.026;2024-03-25T02:14:49;6;4.8;3.8
55857;PMS7003;41779;52.360;31.026;2024-03-25T02:19:41;7.6;4.6;3.6
55857;PMS7003;41779;52.360;31.026;2024-03-25T02:25:31;6.2;4.6;3.6
55857;PMS7003;41779;52.360;31.026;2024-03-25T02:29:49;6.2;4.6;3.6
55857;PMS7003;41779;52.360;31.026;2024-03-25T02:35:04;6.4;4.2;3.2
55857;PMS7003;41779;52.360;31.026;2024-03-25T02:40:09;3.8;2;1.4
55857;PMS7003;41779;52.360;31.026;2024-03-25T02:45:31;4.4;2.8;2
55857;PMS7003;41779;52.360;31.026;2024-03-25T02:50:31;3.2;2.4;2.4
55857;PMS7003;41779;52.360;31.026;2024-03-25T02:55:01;3.2;2.4;2.4
55857;PMS7003;41779;52.360;31.026;2024-03-25T03:00:12;3.8;2.4;2.4
55857;PMS7003;41779;52.360;31.026;2024-03-25T03:05:31;7.4;4.2;3.6
55857;PMS7003;41779;52.360;31.026;2024-03-25T03:10:21;9.5;7.5;5.8
55857;PMS7003;41779;52.360;31.026;2024-03-25T03:14:59;9.5;7.5;5.8
55857;PMS7003;41779;52.360;31.026;2024-03-25T03:20:11;9.8;7.4;5.6
55857;PMS7003;41779;52.360;31.026;2024-03-25T03:24:53;9.8;7.4;5.6
55857;PMS7003;41779;52.360;31.026;2024-03-25T03:30:31;12.6;9;6.8
55857;PMS7003;41779;52.360;31.026;2024-03-25T03:34:49;12.6;9;6.8
55857;PMS7003;41779;52.360;31.026;2024-03-25T03:40:01;9;7;5
55857;PMS7003;41779;52.360;31.026;2024-03-25T03:44:59;11.4;7.8;6.8
55857;PMS7003;41779;52.360;31.026;2024-03-25T03:49:49;10.4;9;6.4
55857;PMS7003;41779;52.360;31.026;2024-03-25T03:55:08;28.4;21.2;14
55857;PMS7003;41779;52.360;31.026;2024-03-25T03:59:41;28.4;21.2;14
55857;PMS7003;41779;52.360;31.026;2024-03-25T04:04:59;35.6;26.2;18.2
55857;PMS7003;41779;52.360;31.026;2024-03-25T04:09:47;30;23;16.7
55857;PMS7003;41779;52.360;31.026;2024-03-25T04:15:09;11.8;8;7
55857;PMS7003;41779;52.360;31.026;2024-03-25T04:20:21;8.2;5.6;5.4
55857;PMS7003;41779;52.360;31.026;2024-03-25T04:25:31;9;6.8;5.2
55857;PMS7003;41779;52.360;31.026;2024-03-25T04:29:41;9;6.8;5.2
55857;PMS7003;41779;52.360;31.026;2024-03-25T04:35:11;6.6;6;4.8
55857;PMS7003;41779;52.360;31.026;2024-03-25T04:40:31;10.6;7.4;6.4
55857;PMS7003;41779;52.360;31.026;2024-03-25T04:45:01;10.6;7.4;6.4
55857;PMS7003;41779;52.360;31.026;2024-03-25T04:49:41;9.8;7.4;6.2
55857;PMS7003;41779;52.360;31.026;2024-03-25T04:54:43;25.6;20.4;15.2
55857;PMS7003;41779;52.360;31.026;2024-03-25T04:59:53;20;15.5;11
55857;PMS7003;41779;52.360;31.026;2024-03-25T05:05:31;75.2;53.4;32.4
55857;PMS7003;41779;52.360;31.026;2024-03-25T05:10:06;35.4;29.4;18.4
55857;PMS7003;41779;52.360;31.026;2024-03-25T05:15:31;15;10.6;8.2
55857;PMS7003;41779;52.360;31.026;2024-03-25T05:20:06;10.8;8.6;6.8
55857;PMS7003;41779;52.360;31.026;2024-03-25T05:24:51;10.8;8.6;6.8
55857;PMS7003;41779;52.360;31.026;2024-03-25T05:29:41;12.2;10;6.8
55857;PMS7003;41779;52.360;31.026;2024-03-25T05:34:49;16;11.8;8.4
55857;PMS7003;41779;52.360;31.026;2024-03-25T05:39:49;19;15.8;12.4
55857;PMS7003;41779;52.360;31.026;2024-03-25T05:44:41;64.2;48;30.8
55857;PMS7003;41779;52.360;31.026;2024-03-25T05:50:01;65;46.2;30.4
55857;PMS7003;41779;52.360;31.026;2024-03-25T05:55:17;75;52.5;34.8
55857;PMS7003;41779;52.360;31.026;2024-03-25T06:00:31;49.4;38.4;26.6
55857;PMS7003;41779;52.360;31.026;2024-03-25T06:04:41;49.4;38.4;26.6
55857;PMS7003;41779;52.360;31.026;2024-03-25T06:10:34;84.6;62;38.4
55857;PMS7003;41779;52.360;31.026;2024-03-25T06:14:59;84.6;62;38.4
55857;PMS7003;41779;52.360;31.026;2024-03-25T06:20:21;40;28.6;19
55857;PMS7003;41779;52.360;31.026;2024-03-25T06:24:59;40;28.6;19
55857;PMS7003;41779;52.360;31.026;2024-03-25T06:30:04;35.8;29.6;21.4
55857;PMS7003;41779;52.360;31.026;2024-03-25T06:35:29;58.2;45;29.4
55857;PMS7003;41779;52.360;31.026;2024-03-25T06:40:29;37.6;30.2;21.6
55857;PMS7003;41779;52.360;31.026;2024-03-25T06:45:08;29;24.2;18
55857;PMS7003;41779;52.360;31.026;2024-03-25T06:50:29;21.8;19;14.8
55857;PMS7003;41779;52.360;31.026;2024-03-25T06:55:11;23.5;21.8;15.5
55857;PMS7003;41779;52.360;31.026;2024-03-25T07:00:19;24.4;21;15
55857;PMS7003;41779;52.360;31.026;2024-03-25T07:05:18;25;22.4;16.8
55857;PMS7003;41779;52.360;31.026;2024-03-25T07:09:41;25;22.4;16.8
55857;PMS7003;41779;52.360;31.026;2024-03-25T07:14:51;23;18.4;13.4
55857;PMS7003;41779;52.360;31.026;2024-03-25T07:19:49;19.8;16.6;12.2
55857;PMS7003;41779;52.360;31.026;2024-03-25T07:24:41;20.4;17.8;13.4
55857;PMS7003;41779;52.360;31.026;2024-03-25T07:30:08;21.8;17.2;13
55857;PMS7003;41779;52.360;31.026;2024-03-25T07:35:11;15.2;13.6;10.4
55857;PMS7003;41779;52.360;31.026;2024-03-25T07:39:41;15.2;13.6;10.4
55857;PMS7003;41779;52.360;31.026;2024-03-25T07:45:31;14.6;12.8;9.6
55857;PMS7003;41779;52.360;31.026;2024-03-25T07:50:18;10.4;9;7.4
55857;PMS7003;41779;52.360;31.026;2024-03-25T07:54:57;10.4;9;7.4
55857;PMS7003;41779;52.360;31.026;2024-03-25T07:59:54;11;9.8;7
55857;PMS7003;41779;52.360;31.026;2024-03-25T08:05:00;5.5;5.5;4.8
55857;PMS7003;41779;52.360;31.026;2024-03-25T08:10:32;4.8;4.6;3.4
55857;PMS7003;41779;52.360;31.026;2024-03-25T08:15:02;4.8;4.6;3.4
55857;PMS7003;41779;52.360;31.026;2024-03-25T08:19:44;6.8;6.6;5
55857;PMS7003;41779;52.360;31.026;2024-03-25T08:25:18;9.2;8;6.4
55857;PMS7003;41779;52.360;31.026;2024-03-25T08:30:32;10.8;7.6;6
55857;PMS7003;41779;52.360;31.026;2024-03-25T08:34:59;10.8;7.6;6
55857;PMS7003;41779;52.360;31.026;2024-03-25T08:40:22;14.8;12.2;9.2
55857;PMS7003;41779;52.360;31.026;2024-03-25T08:45:08;12;10.4;7.4
55857;PMS7003;41779;52.360;31.026;2024-03-25T08:49:39;12;10.4;7.4
55857;PMS7003;41779;52.360;31.026;2024-03-25T08:54:40;8.8;7.4;6.8
55857;PMS7003;41779;52.360;31.026;2024-03-25T08:59:40;8.4;6.4;5.6
55857;PMS7003;41779;52.360;31.026;2024-03-25T09:04:42;5;4.3;3.7
55857;PMS7003;41779;52.360;31.026;2024-03-25T09:09:42;4.4;3.4;2.6
55857;PMS7003;41779;52.360;31.026;2024-03-25T09:15:16;1.8;1.2;1
55857;PMS7003;41779;52.360;31.026;2024-03-25T09:20:30;2.2;2.2;1.8
55857;PMS7003;41779;52.360;31.026;2024-03-25T09:25:18;2.8;2.4;2
55857;PMS7003;41779;52.360;31.026;2024-03-25T09:29:40;2.8;2.4;2
55857;PMS7003;41779;52.360;31.026;2024-03-25T09:35:04;5;3.8;3.2
55857;PMS7003;41779;52.360;31.026;2024-03-25T09:40:30;2.6;2.4;1.8
55857;PMS7003;41779;52.360;31.026;2024-03-25T09:45:20;3.4;2.2;2
55857;PMS7003;41779;52.360;31.026;2024-03-25T09:49:40;3.4;2.2;2
55857;PMS7003;41779;52.360;31.026;2024-03-25T09:55:30;2.5;2.3;2.3
55857;PMS7003;41779;52.360;31.026;2024-03-25T10:00:00;2.5;2.3;2.3
55857;PMS7003;41779;52.360;31.026;2024-03-25T10:05:30;3.6;3.4;2.6
55857;PMS7003;41779;52.360;31.026;2024-03-25T10:10:26;4.6;3.8;3
55857;PMS7003;41779;52.360;31.026;2024-03-25T10:15:28;2.8;2.8;2
55857;PMS7003;41779;52.360;31.026;2024-03-25T10:20:13;3;3;2.8
55857;PMS7003;41779;52.360;31.026;2024-03-25T10:25:20;3.2;2.4;2
55857;PMS7003;41779;52.360;31.026;2024-03-25T10:29:40;3.2;2.4;2
55857;PMS7003;41779;52.360;31.026;2024-03-25T10:34:50;2.2;1.6;1.2
55857;PMS7003;41779;52.360;31.026;2024-03-25T10:40:08;5;3.6;2.6
55857;PMS7003;41779;52.360;31.026;2024-03-25T10:50:20;3.3;2.5;2.3
55857;PMS7003;41779;52.360;31.026;2024-03-25T10:54:58;3.3;2.5;2.3
55857;PMS7003;41779;52.360;31.026;2024-03-25T10:59:58;3.8;3;2.6
55857;PMS7003;41779;52.360;31.026;2024-03-25T11:05:30;11.2;9.8;7.8
55857;PMS7003;41779;52.360;31.026;2024-03-25T11:10:30;17.8;16.3;13
55857;PMS7003;41779;52.360;31.026;2024-03-25T11:15:18;18;15;11.4
55857;PMS7003;41779;52.360;31.026;2024-03-25T11:20:22;19;17.7;12.7
55857;PMS7003;41779;52.360;31.026;2024-03-25T11:25:05;19;17.7;12.7
55857;PMS7003;41779;52.360;31.026;2024-03-25T11:30:02;28;22.5;16
55857;PMS7003;41779;52.360;31.026;2024-03-25T11:35:28;11.8;9;7
55857;PMS7003;41779;52.360;31.026;2024-03-25T11:40:28;8.6;7;5.4
55857;PMS7003;41779;52.360;31.026;2024-03-25T11:45:13;7.8;5.4;4.8
55857;PMS7003;41779;52.360;31.026;2024-03-25T11:50:30;10.5;9;7.3
55857;PMS7003;41779;52.360;31.026;2024-03-25T11:55:30;5.2;4.2;3.6
55857;PMS7003;41779;52.360;31.026;2024-03-25T12:00:18;6;4.6;3.8
55857;PMS7003;41779;52.360;31.026;2024-03-25T12:05:32;5.2;3.4;2.8
55857;PMS7003;41779;52.360;31.026;2024-03-25T12:09:50;5.2;3.4;2.8
55857;PMS7003;41779;52.360;31.026;2024-03-25T12:15:14;4.2;2.8;2.2
55857;PMS7003;41779;52.360;31.026;2024-03-25T12:19:42;4.2;2.8;2.2
55857;PMS7003;41779;52.360;31.026;2024-03-25T12:24:56;1.8;1.8;1.8
55857;PMS7003;41779;52.360;31.026;2024-03-25T12:30:22;2.6;2.4;1.8
55857;PMS7003;41779;52.360;31.026;2024-03-25T12:35:11;2.6;2.4;1.6
55857;PMS7003;41779;52.360;31.026;2024-03-25T12:39:56;2.6;2.4;1.6
55857;PMS7003;41779;52.360;31.026;2024-03-25T12:45:30;3.2;2.6;1.8
55857;PMS7003;41779;52.360;31.026;2024-03-25T12:50:18;4.3;3.3;2.8
55857;PMS7003;41779;52.360;31.026;2024-03-25T12:55:22;3.8;2.4;1.8
55857;PMS7003;41779;52.360;31.026;2024-03-25T13:00:02;3.8;2.4;1.8
55857;PMS7003;41779;52.360;31.026;2024-03-25T13:05:12;5.3;3.8;2.8
55857;PMS7003;41779;52.360;31.026;2024-03-25T13:10:32;6.6;4.8;3.6
55857;PMS7003;41779;52.360;31.026;2024-03-25T13:15:32;3.3;2;1.5
55857;PMS7003;41779;52.360;31.026;2024-03-25T13:19:42;3.3;2;1.5
55857;PMS7003;41779;52.360;31.026;2024-03-25T13:25:32;2.8;2.6;1.8
55857;PMS7003;41779;52.360;31.026;2024-03-25T13:30:32;2.8;2.4;2
55857;PMS7003;41779;52.360;31.026;2024-03-25T13:35:10;4.8;3;2.4
55857;PMS7003;41779;52.360;31.026;2024-03-25T13:40:32;4.2;3.2;2.4
55857;PMS7003;41779;52.360;31.026;2024-03-25T13:44:42;4.2;3.2;2.4
55857;PMS7003;41779;52.360;31.026;2024-03-25T13:49:42;4.2;3.6;2.8
55857;PMS7003;41779;52.360;31.026;2024-03-25T13:54:58;4.4;3.8;3
55857;PMS7003;41779;52.360;31.026;2024-03-25T14:00:02;4.6;3;2.4
55857;PMS7003;41779;52.360;31.026;2024-03-25T14:05:08;3.2;2.2;1.8
55857;PMS7003;41779;52.360;31.026;2024-03-25T14:10:14;1.6;1.6;1.4
55857;PMS7003;41779;52.360;31.026;2024-03-25T14:14:56;1.6;1.6;1.4
55857;PMS7003;41779;52.360;31.026;2024-03-25T14:20:32;5.4;4.4;3.4
55857;PMS7003;41779;52.360;31.026;2024-03-25T14:25:30;4;2.6;2
55857;PMS7003;41779;52.360;31.026;2024-03-25T14:30:18;2.2;2.2;1.8
55857;PMS7003;41779;52.360;31.026;2024-03-25T14:34:50;2.2;2.2;1.8
55857;PMS7003;41779;52.360;31.026;2024-03-25T14:40:12;4.3;3;2.8
55857;PMS7003;41779;52.360;31.026;2024-03-25T14:45:22;4;4;4
55857;PMS7003;41779;52.360;31.026;2024-03-25T14:49:42;4;4;4
55857;PMS7003;41779;52.360;31.026;2024-03-25T14:55:22;3.4;2;2
55857;PMS7003;41779;52.360;31.026;2024-03-25T15:00:00;3.4;2;2
55857;PMS7003;41779;52.360;31.026;2024-03-25T15:05:32;4.2;2.8;2.2
55857;PMS7003;41779;52.360;31.026;2024-03-25T15:09:42;4.2;2.8;2.2
55857;PMS7003;41779;52.360;31.026;2024-03-25T15:15:04;9;4.6;3.8
55857;PMS7003;41779;52.360;31.026;2024-03-25T15:20:00;18.8;13;8.6
55857;PMS7003;41779;52.360;31.026;2024-03-25T15:24:54;23.2;17.2;10.6
55857;PMS7003;41779;52.360;31.026;2024-03-25T15:29:42;16.2;10.6;6.4
55857;PMS7003;41779;52.360;31.026;2024-03-25T15:34:50;16.8;14.4;10.2
55857;PMS7003;41779;52.360;31.026;2024-03-25T15:39:50;22;14.8;10
55857;PMS7003;41779;52.360;31.026;2024-03-25T15:45:04;14;11;7.6
55857;PMS7003;41779;52.360;31.026;2024-03-25T15:49:44;5;3.2;2.4
55857;PMS7003;41779;52.360;31.026;2024-03-25T15:55:32;4;2.8;2
55857;PMS7003;41779;52.360;31.026;2024-03-25T16:00:14;4.8;4;3.6
55857;PMS7003;41779;52.360;31.026;2024-03-25T16:05:32;4.4;3.4;3
55857;PMS7003;41779;52.360;31.026;2024-03-25T16:10:12;9.3;5.8;3.5
55857;PMS7003;41779;52.360;31.026;2024-03-25T16:15:32;7.5;3.5;3
55857;PMS7003;41779;52.360;31.026;2024-03-25T16:20:22;4.8;2.4;2
55857;PMS7003;41779;52.360;31.026;2024-03-25T16:24:54;4.8;2.4;2
55857;PMS7003;41779;52.360;31.026;2024-03-25T16:30:13;8.7;7;5.3
55857;PMS7003;41779;52.360;31.026;2024-03-25T16:35:02;8.7;7;5.3
55857;PMS7003;41779;52.360;31.026;2024-03-25T16:40:32;9;6.6;5.6
55857;PMS7003;41779;52.360;31.026;2024-03-25T16:45:18;8.2;6.2;4.8
55857;PMS7003;41779;52.360;31.026;2024-03-25T16:50:32;10.3;7.3;5.8
55857;PMS7003;41779;52.360;31.026;2024-03-25T16:55:32;12.5;9.8;7
55857;PMS7003;41779;52.360;31.026;2024-03-25T17:00:32;20;15.3;11.7
55857;PMS7003;41779;52.360;31.026;2024-03-25T17:05:08;22.2;18.8;14.4
55857;PMS7003;41779;52.360;31.026;2024-03-25T17:09:58;22.2;18.8;14.4
55857;PMS7003;41779;52.360;31.026;2024-03-25T17:15:08;21.8;15.8;11
55857;PMS7003;41779;52.360;31.026;2024-03-25T17:19:48;21.8;15.8;11
55857;PMS7003;41779;52.360;31.026;2024-03-25T17:24:52;22.2;18.6;13.2
55857;PMS7003;41779;52.360;31.026;2024-03-25T17:29:56;18;12.2;9.4
55857;PMS7003;41779;52.360;31.026;2024-03-25T17:35:08;9;6.4;5.2
55857;PMS7003;41779;52.360;31.026;2024-03-25T17:39:56;9;6.4;5.2
55857;PMS7003;41779;52.360;31.026;2024-03-25T17:45:30;18;13.4;11
55857;PMS7003;41779;52.360;31.026;2024-03-25T17:50:16;18.6;15.8;11.4
55857;PMS7003;41779;52.360;31.026;2024-03-25T17:55:30;20;15.3;10.7
55857;PMS7003;41779;52.360;31.026;2024-03-25T18:00:08;20.2;14.6;11.6
55857;PMS7003;41779;52.360;31.026;2024-03-25T18:05:10;21.2;16;12
55857;PMS7003;41779;52.360;31.026;2024-03-25T18:10:30;27.3;23.5;15.8
55857;PMS7003;41779;52.360;31.026;2024-03-25T18:15:30;45.6;36.2;23.8
55857;PMS7003;41779;52.360;31.026;2024-03-25T18:20:06;76.8;56.4;35
55857;PMS7003;41779;52.360;31.026;2024-03-25T18:25:30;41;31.8;21.5
55857;PMS7003;41779;52.360;31.026;2024-03-25T18:30:28;32.6;27;19.4
55857;PMS7003;41779;52.360;31.026;2024-03-25T18:35:16;35.8;26.3;18.5
55857;PMS7003;41779;52.360;31.026;2024-03-25T18:40:30;49.6;35;21.6
55857;PMS7003;41779;52.360;31.026;2024-03-25T18:44:40;49.6;35;21.6
55857;PMS7003;41779;52.360;31.026;2024-03-25T18:50:30;33;25;15.2
55857;PMS7003;41779;52.360;31.026;2024-03-25T18:54:48;33;25;15.2
55857;PMS7003;41779;52.360;31.026;2024-03-25T18:59:48;24.5;18;12.8
55857;PMS7003;41779;52.360;31.026;2024-03-25T19:05:30;22;17;12.4
55857;PMS7003;41779;52.360;31.026;2024-03-25T19:10:10;22;18.4;12.6
55857;PMS7003;41779;52.360;31.026;2024-03-25T19:14:40;22;18.4;12.6
55857;PMS7003;41779;52.360;31.026;2024-03-25T19:20:30;29.6;23;16.2
55857;PMS7003;41779;52.360;31.026;2024-03-25T19:25:17;39;28;20.8
55857;PMS7003;41779;52.360;31.026;2024-03-25T19:29:56;39;28;20.8
55857;PMS7003;41779;52.360;31.026;2024-03-25T19:35:00;47;36.2;24.2
55857;PMS7003;41779;52.360;31.026;2024-03-25T19:40:10;36;28;18.4
55857;PMS7003;41779;52.360;31.026;2024-03-25T19:44:54;36;28;18.4
55857;PMS7003;41779;52.360;31.026;2024-03-25T19:49:50;50;38.8;27.6
55857;PMS7003;41779;52.360;31.026;2024-03-25T19:55:22;34.7;27.7;20
55857;PMS7003;41779;52.360;31.026;2024-03-25T20:00:00;34.7;27.7;20
55857;PMS7003;41779;52.360;31.026;2024-03-25T20:05:32;41.4;31.6;21.6
55857;PMS7003;41779;52.360;31.026;2024-03-25T20:10:08;44.2;32.8;21.6
55857;PMS7003;41779;52.360;31.026;2024-03-25T20:15:22;27;23.4;17.4
55857;PMS7003;41779;52.360;31.026;2024-03-25T20:20:08;29.6;22.4;15.8
55857;PMS7003;41779;52.360;31.026;2024-03-25T20:25:22;27.6;22.8;16.6
55857;PMS7003;41779;52.360;31.026;2024-03-25T20:29:42;27.6;22.8;16.6
55857;PMS7003;41779;52.360;31.026;2024-03-25T20:34:42;27.4;21.2;15.6
55857;PMS7003;41779;52.360;31.026;2024-03-25T20:40:14;44.6;33.2;23
55857;PMS7003;41779;52.360;31.026;2024-03-25T20:44:50;44.6;33.2;23
55857;PMS7003;41779;52.360;31.026;2024-03-25T20:50:32;32;26.6;19
55857;PMS7003;41779;52.360;31.026;2024-03-25T20:55:32;30.8;23.5;16.5
55857;PMS7003;41779;52.360;31.026;2024-03-25T21:00:32;31;24.2;17.2
55857;PMS7003;41779;52.360;31.026;2024-03-25T21:05:18;21.6;18.2;13.6
55857;PMS7003;41779;52.360;31.026;2024-03-25T21:10:04;21.6;18.2;13.6
55857;PMS7003;41779;52.360;31.026;2024-03-25T21:15:32;21.4;16;11.8
55857;PMS7003;41779;52.360;31.026;2024-03-25T21:20:05;21.4;16;11.8
55857;PMS7003;41779;52.360;31.026;2024-03-25T21:24:42;19;14;11
55857;PMS7003;41779;52.360;31.026;2024-03-25T21:30:12;29.2;23;17.2
55857;PMS7003;41779;52.360;31.026;2024-03-25T21:35:10;29;24.5;17
55857;PMS7003;41779;52.360;31.026;2024-03-25T21:40:32;30.5;23.8;16.8
55857;PMS7003;41779;52.360;31.026;2024-03-25T21:45:08;33.8;28.8;19
55857;PMS7003;41779;52.360;31.026;2024-03-25T21:50:32;36.4;28.4;20.4
55857;PMS7003;41779;52.360;31.026;2024-03-25T21:55:18;38.8;31.8;23
55857;PMS7003;41779;52.360;31.026;2024-03-25T22:00:02;38.8;31.8;23
55857;PMS7003;41779;52.360;31.026;2024-03-25T22:04:50;35.8;28;20.2
55857;PMS7003;41779;52.360;31.026;2024-03-25T22:10:02;33.4;28.2;19.6
55857;PMS7003;41779;52.360;31.026;2024-03-25T22:15:00;74.3;52;32.3
55857;PMS7003;41779;52.360;31.026;2024-03-25T22:19:42;87.8;61;37.4
55857;PMS7003;41779;52.360;31.026;2024-03-25T22:25:32;60.6;43.8;29
55857;PMS7003;41779;52.360;31.026;2024-03-25T22:30:24;47.2;35.6;23.4
55857;PMS7003;41779;52.360;31.026;2024-03-25T22:35:32;30.6;24.8;18
55857;PMS7003;41779;52.360;31.026;2024-03-25T22:39:50;30.6;24.8;18
55857;PMS7003;41779;52.360;31.026;2024-03-25T22:45:32;24.8;19.8;14.8
55857;PMS7003;41779;52.360;31.026;2024-03-25T22:50:32;25.4;19.6;14.4
55857;PMS7003;41779;52.360;31.026;2024-03-25T22:55:22;27;21;14.5
55857;PMS7003;41779;52.360;31.026;2024-03-25T22:59:42;27;21;14.5
55857;PMS7003;41779;52.360;31.026;2024-03-25T23:04:52;27.4;21.6;15.2
55857;PMS7003;41779;52.360;31.026;2024-03-25T23:09:42;26.5;22;15.3
55857;PMS7003;41779;52.360;31.026;2024-03-25T23:15:32;26.4;21.2;15.8
55857;PMS7003;41779;52.360;31.026;2024-03-25T23:19:50;26.4;21.2;15.8
55857;PMS7003;41779;52.360;31.026;2024-03-25T23:25:30;27.8;22;15.2
55857;PMS7003;41779;52.360;31.026;2024-03-25T23:29:42;27.8;22;15.2
55857;PMS7003;41779;52.360;31.026;2024-03-25T23:35:10;30.4;24.4;17.6
55857;PMS7003;41779;52.360;31.026;2024-03-25T23:40:22;28.6;23.2;17.6
55857;PMS7003;41779;52.360;31.026;2024-03-25T23:45:00;28.6;23.2;17.6
55857;PMS7003;41779;52.360;31.026;2024-03-25T23:50:08;30.6;23.2;17.6
55857;PMS7003;41779;52.360;31.026;2024-03-25T23:55:10;26;21.8;15.2
